Time;durP1;ratioP1;P1;durP2;ratioP2;P2;SDS_P1;SDS_P2;PMS_P1;PMS_P2;Temp;Humidity;BMP_temperature;BMP_pressure;BME280_temperature;BME280_humidity;BME280_pressure;Samples;Min_cycle;Max_cycle;Signal;HPM_P1;HPM_P2
2021/01/03 00:00:43;;;;;;;63.85;34.47;;;;;;;;;;5025423;28;20411;-83
2021/01/03 00:03:11;;;;;;;66.53;35.90;;;;;;;;;;5038584;28;20390;-84
2021/01/03 00:05:38;;;;;;;62.40;34.65;;;;;;;;;;5025651;28;20506;-83
2021/01/03 00:08:04;;;;;;;63.10;34.53;;;;;;;;;;5028698;28;20381;-83
2021/01/03 00:10:31;;;;;;;64.20;35.00;;;;;;;;;;5023750;28;21019;-84
2021/01/03 00:12:57;;;;;;;64.60;34.63;;;;;;;;;;5012520;28;20431;-84
2021/01/03 00:15:24;;;;;;;64.38;35.80;;;;;;;;;;5012925;28;20411;-83
2021/01/03 00:17:50;;;;;;;58.05;32.33;;;;;;;;;;5030302;28;20398;-85
2021/01/03 00:20:18;;;;;;;58.83;32.80;;;;;;;;;;5009657;28;20425;-84
2021/01/03 00:22:44;;;;;;;57.67;32.90;;;;;;;;;;5011031;28;20399;-83
2021/01/03 00:25:11;;;;;;;53.90;30.58;;;;;;;;;;5015196;28;20471;-81
2021/01/03 00:27:37;;;;;;;54.33;30.42;;;;;;;;;;5016426;28;20414;-82
2021/01/03 00:30:07;;;;;;;56.15;31.30;;;;;;;;;;5021916;28;20391;-81
2021/01/03 00:32:33;;;;;;;53.22;30.52;;;;;;;;;;5036027;28;20407;-82
2021/01/03 00:35:00;;;;;;;53.88;29.58;;;;;;;;;;5036866;28;20494;-81
2021/01/03 00:37:26;;;;;;;53.83;31.27;;;;;;;;;;5044765;28;20389;-81
2021/01/03 00:39:52;;;;;;;53.75;30.63;;;;;;;;;;5036878;28;20465;-81
2021/01/03 00:42:18;;;;;;;52.25;31.00;;;;;;;;;;5029640;28;20402;-81
2021/01/03 00:44:44;;;;;;;56.60;31.13;;;;;;;;;;5020330;28;20452;-81
2021/01/03 00:47:11;;;;;;;51.67;29.13;;;;;;;;;;5038380;28;20410;-82
2021/01/03 00:49:37;;;;;;;57.20;31.38;;;;;;;;;;5029159;28;20410;-81
2021/01/03 00:52:03;;;;;;;52.53;30.83;;;;;;;;;;5032811;28;20385;-82
2021/01/03 00:54:35;;;;;;;53.40;30.50;;;;;;;;;;5032824;28;20393;-82
2021/01/03 00:57:04;;;;;;;53.00;30.17;;;;;;;;;;5032391;28;20402;-82
2021/01/03 00:59:30;;;;;;;59.92;30.52;;;;;;;;;;5044591;28;20394;-85
2021/01/03 01:01:58;;;;;;;55.83;30.67;;;;;;;;;;5036522;28;20482;-84
2021/01/03 01:04:25;;;;;;;54.20;30.83;;;;;;;;;;5043154;28;20484;-84
2021/01/03 01:06:51;;;;;;;56.60;31.70;;;;;;;;;;5035606;28;20401;-85
2021/01/03 01:09:17;;;;;;;58.58;32.53;;;;;;;;;;5034531;28;20470;-83
2021/01/03 01:11:44;;;;;;;60.95;33.72;;;;;;;;;;5034340;28;20387;-82
2021/01/03 01:14:13;;;;;;;62.10;34.17;;;;;;;;;;5025228;28;20410;-87
2021/01/03 01:16:40;;;;;;;58.85;32.40;;;;;;;;;;5029455;28;20487;-86
2021/01/03 01:19:07;;;;;;;62.28;33.55;;;;;;;;;;5044152;28;20483;-83
2021/01/03 01:21:34;;;;;;;62.88;34.20;;;;;;;;;;5027701;28;20387;-86
2021/01/03 01:24:03;;;;;;;61.77;32.67;;;;;;;;;;5027877;28;20398;-82
2021/01/03 01:26:29;;;;;;;61.83;34.80;;;;;;;;;;5031559;28;20413;-81
2021/01/03 01:28:55;;;;;;;62.00;33.90;;;;;;;;;;5042958;28;20409;-83
2021/01/03 01:31:21;;;;;;;63.08;33.95;;;;;;;;;;5030578;28;20596;-82
2021/01/03 01:33:47;;;;;;;62.38;33.72;;;;;;;;;;5037330;28;20397;-81
2021/01/03 01:36:13;;;;;;;63.45;34.45;;;;;;;;;;5032035;28;20478;-82
2021/01/03 01:38:39;;;;;;;58.97;33.58;;;;;;;;;;5034609;28;20857;-82
2021/01/03 01:41:05;;;;;;;57.88;33.05;;;;;;;;;;5028328;28;20399;-82
2021/01/03 01:43:31;;;;;;;61.10;33.30;;;;;;;;;;5026975;28;20779;-82
2021/01/03 01:45:58;;;;;;;58.67;33.27;;;;;;;;;;5021934;28;20420;-81
2021/01/03 01:48:26;;;;;;;57.08;32.15;;;;;;;;;;5044166;28;22083;-82
2021/01/03 01:50:55;;;;;;;56.00;31.25;;;;;;;;;;5042782;28;20414;-82
2021/01/03 01:53:36;;;;;;;56.67;31.63;;;;;;;;;;5033986;28;20611;-81
2021/01/03 01:56:09;;;;;;;57.78;31.33;;;;;;;;;;5028181;28;20408;-85
2021/01/03 01:58:51;;;;;;;55.83;30.45;;;;;;;;;;5022888;28;20414;-82
2021/01/03 02:01:20;;;;;;;51.25;29.27;;;;;;;;;;5026306;28;20740;-82
2021/01/03 02:04:14;;;;;;;54.72;30.75;;;;;;;;;;5027362;28;20403;-82
2021/01/03 02:06:43;;;;;;;56.58;31.52;;;;;;;;;;5025453;28;20449;-81
2021/01/03 02:09:16;;;;;;;55.03;30.48;;;;;;;;;;5026561;28;20481;-81
2021/01/03 02:11:42;;;;;;;55.95;32.13;;;;;;;;;;5025650;28;20399;-82
2021/01/03 02:14:10;;;;;;;55.83;32.03;;;;;;;;;;5026587;28;20399;-83
2021/01/03 02:16:37;;;;;;;55.10;31.35;;;;;;;;;;5027377;28;20427;-82
2021/01/03 02:19:04;;;;;;;54.53;32.38;;;;;;;;;;5025055;28;20481;-82
2021/01/03 02:21:35;;;;;;;61.35;33.60;;;;;;;;;;5026857;28;20713;-81
2021/01/03 02:24:10;;;;;;;56.20;31.50;;;;;;;;;;5027325;28;20399;-81
2021/01/03 02:26:38;;;;;;;58.80;34.05;;;;;;;;;;5025729;28;20411;-81
2021/01/03 02:29:05;;;;;;;57.78;33.75;;;;;;;;;;5026802;28;20395;-82
2021/01/03 02:31:36;;;;;;;62.60;34.15;;;;;;;;;;5026217;28;20779;-82
2021/01/03 02:34:05;;;;;;;62.45;35.17;;;;;;;;;;5026000;28;20450;-82
2021/01/03 02:36:51;;;;;;;61.63;34.00;;;;;;;;;;5026579;28;20398;-81
2021/01/03 02:39:36;;;;;;;62.67;35.10;;;;;;;;;;5026931;28;20780;-81
2021/01/03 02:42:22;;;;;;;69.07;36.63;;;;;;;;;;5021943;28;20392;-82
2021/01/03 02:44:48;;;;;;;70.85;36.90;;;;;;;;;;5026668;28;20431;-81
2021/01/03 02:47:14;;;;;;;65.38;36.20;;;;;;;;;;5026104;28;20391;-81
2021/01/03 02:49:41;;;;;;;67.25;36.85;;;;;;;;;;5027114;28;20414;-82
2021/01/03 02:52:10;;;;;;;65.93;37.22;;;;;;;;;;5017874;28;20406;-81
2021/01/03 02:54:36;;;;;;;66.40;36.28;;;;;;;;;;5016790;28;20735;-81
2021/01/03 02:57:02;;;;;;;64.85;35.75;;;;;;;;;;5021028;28;20395;-82
2021/01/03 02:59:28;;;;;;;63.85;36.35;;;;;;;;;;5026142;28;20402;-82
2021/01/03 03:01:54;;;;;;;70.43;37.30;;;;;;;;;;5026411;28;20434;-82
2021/01/03 03:04:20;;;;;;;77.47;40.22;;;;;;;;;;5021404;28;20486;-82
2021/01/03 03:06:46;;;;;;;68.85;38.55;;;;;;;;;;5026317;28;20437;-81
2021/01/03 03:09:12;;;;;;;71.60;37.63;;;;;;;;;;5024337;28;20462;-82
2021/01/03 03:11:38;;;;;;;70.13;36.78;;;;;;;;;;5021796;28;20418;-82
2021/01/03 03:14:04;;;;;;;71.60;37.85;;;;;;;;;;5021486;28;21116;-82
2021/01/03 03:16:30;;;;;;;72.68;38.58;;;;;;;;;;5026100;28;20423;-82
2021/01/03 03:18:56;;;;;;;67.95;37.72;;;;;;;;;;5018802;28;20427;-81
2021/01/03 03:21:22;;;;;;;71.33;37.87;;;;;;;;;;5006488;28;20412;-81
2021/01/03 03:23:48;;;;;;;65.85;35.65;;;;;;;;;;4996419;28;20453;-81
2021/01/03 03:26:14;;;;;;;73.18;37.88;;;;;;;;;;5015594;28;20433;-81
2021/01/03 03:28:40;;;;;;;75.75;37.88;;;;;;;;;;5011072;28;20404;-81
2021/01/03 03:31:06;;;;;;;69.15;37.03;;;;;;;;;;5007048;28;20414;-82
2021/01/03 03:33:32;;;;;;;64.88;34.83;;;;;;;;;;5007766;28;21098;-82
2021/01/03 03:35:58;;;;;;;73.10;38.30;;;;;;;;;;5019682;28;20395;-82
2021/01/03 03:38:24;;;;;;;69.90;35.67;;;;;;;;;;5023662;28;21113;-82
2021/01/03 03:40:50;;;;;;;77.43;36.38;;;;;;;;;;5016361;28;20407;-82
2021/01/03 03:43:16;;;;;;;72.40;37.30;;;;;;;;;;5007206;28;20522;-81
2021/01/03 03:45:42;;;;;;;68.75;37.33;;;;;;;;;;5012103;28;20501;-81
2021/01/03 03:48:09;;;;;;;62.50;34.50;;;;;;;;;;5015695;28;20389;-81
2021/01/03 03:50:34;;;;;;;64.45;34.00;;;;;;;;;;5006048;28;20482;-81
2021/01/03 03:53:01;;;;;;;63.97;34.75;;;;;;;;;;5015925;28;20396;-81
2021/01/03 03:55:27;;;;;;;62.50;32.90;;;;;;;;;;5008147;28;20406;-81
2021/01/03 03:57:52;;;;;;;64.00;34.50;;;;;;;;;;5013997;28;20491;-82
2021/01/03 04:00:20;;;;;;;63.00;34.30;;;;;;;;;;5008617;28;20530;-82
2021/01/03 04:02:47;;;;;;;58.95;33.40;;;;;;;;;;5006571;28;20411;-84
2021/01/03 04:05:15;;;;;;;56.67;32.73;;;;;;;;;;5031444;28;20421;-82
2021/01/03 04:07:41;;;;;;;62.58;34.47;;;;;;;;;;5008785;28;21031;-82
2021/01/03 04:10:07;;;;;;;63.42;33.65;;;;;;;;;;5018089;28;20503;-82
2021/01/03 04:12:33;;;;;;;65.80;33.78;;;;;;;;;;4993304;28;20393;-82
2021/01/03 04:14:59;;;;;;;60.90;33.13;;;;;;;;;;5003493;28;20452;-84
2021/01/03 04:17:25;;;;;;;58.90;33.47;;;;;;;;;;5014861;28;20400;-82
2021/01/03 04:19:51;;;;;;;63.87;33.77;;;;;;;;;;5018770;28;20419;-84
2021/01/03 04:22:17;;;;;;;62.45;34.05;;;;;;;;;;5005063;28;20409;-83
2021/01/03 04:24:43;;;;;;;65.60;34.83;;;;;;;;;;5006799;28;20423;-82
2021/01/03 04:27:12;;;;;;;64.40;32.97;;;;;;;;;;4999446;28;20413;-83
2021/01/03 04:29:38;;;;;;;61.47;33.05;;;;;;;;;;5020852;28;20407;-81
2021/01/03 04:32:08;;;;;;;63.10;34.40;;;;;;;;;;5007317;28;20723;-81
2021/01/03 04:34:35;;;;;;;64.35;34.78;;;;;;;;;;5005259;28;20440;-84
2021/01/03 04:37:01;;;;;;;61.20;34.33;;;;;;;;;;5007350;28;20900;-82
2021/01/03 04:39:28;;;;;;;63.37;33.77;;;;;;;;;;5007031;28;20569;-81
2021/01/03 04:42:00;;;;;;;67.88;35.47;;;;;;;;;;5016307;28;20918;-81
2021/01/03 04:44:31;;;;;;;65.68;35.65;;;;;;;;;;5006997;28;20418;-82
2021/01/03 04:46:59;;;;;;;69.50;35.40;;;;;;;;;;5034892;28;20416;-82
2021/01/03 04:49:28;;;;;;;75.50;38.15;;;;;;;;;;5003605;28;20395;-81
2021/01/03 04:52:06;;;;;;;72.63;36.95;;;;;;;;;;5010173;28;20412;-82
2021/01/03 04:54:33;;;;;;;75.35;38.55;;;;;;;;;;5012771;28;20418;-82
2021/01/03 04:57:00;;;;;;;72.28;37.55;;;;;;;;;;4991442;28;20404;-82
2021/01/03 04:59:27;;;;;;;81.68;39.55;;;;;;;;;;5003087;28;21000;-82
2021/01/03 05:01:53;;;;;;;73.70;39.22;;;;;;;;;;4990262;28;20440;-81
2021/01/03 05:04:38;;;;;;;87.53;41.47;;;;;;;;;;4988922;28;20410;-82
2021/01/03 05:07:10;;;;;;;76.60;37.58;;;;;;;;;;5010137;28;20844;-81
2021/01/03 05:09:40;;;;;;;83.43;40.95;;;;;;;;;;4984178;28;21112;-81
2021/01/03 05:12:06;;;;;;;79.03;39.20;;;;;;;;;;4992744;28;20396;-85
2021/01/03 05:14:52;;;;;;;78.40;39.20;;;;;;;;;;5002004;28;20424;-82
2021/01/03 05:17:18;;;;;;;74.55;37.53;;;;;;;;;;4998353;28;20439;-81
2021/01/03 05:19:43;;;;;;;84.03;40.33;;;;;;;;;;4994670;28;20446;-82
2021/01/03 05:22:23;;;;;;;90.47;43.10;;;;;;;;;;4992423;28;20401;-81
2021/01/03 05:24:49;;;;;;;86.30;40.83;;;;;;;;;;4997354;28;20476;-82
2021/01/03 05:27:17;;;;;;;84.57;40.17;;;;;;;;;;4999030;28;20405;-82
2021/01/03 05:29:44;;;;;;;77.15;40.40;;;;;;;;;;4997412;28;20414;-81
2021/01/03 05:32:10;;;;;;;81.78;39.97;;;;;;;;;;4995238;28;20910;-81
2021/01/03 05:34:38;;;;;;;85.00;43.03;;;;;;;;;;4991763;28;20409;-81
2021/01/03 05:37:12;;;;;;;80.88;38.92;;;;;;;;;;4992450;28;20411;-85
2021/01/03 05:39:39;;;;;;;75.47;38.65;;;;;;;;;;5004392;28;20422;-81
2021/01/03 05:42:20;;;;;;;86.70;41.23;;;;;;;;;;5010957;28;20407;-82
2021/01/03 05:45:05;;;;;;;90.85;44.45;;;;;;;;;;5009731;28;25088;-81
2021/01/03 05:47:39;;;;;;;84.65;42.42;;;;;;;;;;5014179;28;20412;-84
2021/01/03 05:50:17;;;;;;;94.70;44.80;;;;;;;;;;5007015;28;20413;-82
2021/01/03 05:52:53;;;;;;;99.28;44.95;;;;;;;;;;5025651;28;20432;-81
2021/01/03 05:55:22;;;;;;;97.75;48.40;;;;;;;;;;5011411;28;20392;-81
2021/01/03 05:57:48;;;;;;;98.65;47.80;;;;;;;;;;5015106;28;20432;-81
2021/01/03 06:00:25;;;;;;;91.82;46.78;;;;;;;;;;5010876;28;20403;-82
2021/01/03 06:02:51;;;;;;;100.15;48.20;;;;;;;;;;5012003;28;20409;-81
2021/01/03 06:05:19;;;;;;;110.60;49.75;;;;;;;;;;5015454;28;20423;-82
2021/01/03 06:08:04;;;;;;;119.43;52.72;;;;;;;;;;5009274;28;20403;-81
2021/01/03 06:10:32;;;;;;;105.95;49.75;;;;;;;;;;5014025;28;20453;-84
2021/01/03 06:12:58;;;;;;;102.33;49.37;;;;;;;;;;5010803;28;20485;-81
2021/01/03 06:15:26;;;;;;;99.40;50.27;;;;;;;;;;5006191;28;20484;-81
2021/01/03 06:17:55;;;;;;;129.05;52.38;;;;;;;;;;5010908;28;20442;-81
2021/01/03 06:20:24;;;;;;;98.13;48.17;;;;;;;;;;5017556;28;20420;-81
2021/01/03 06:22:54;;;;;;;98.22;49.20;;;;;;;;;;5003901;28;20493;-82
2021/01/03 06:25:30;;;;;;;91.20;47.17;;;;;;;;;;5017065;28;20432;-81
2021/01/03 06:28:02;;;;;;;95.90;46.85;;;;;;;;;;5007571;28;25169;-81
2021/01/03 06:30:28;;;;;;;95.32;47.70;;;;;;;;;;5000696;28;20401;-82
2021/01/03 06:33:16;;;;;;;99.93;48.13;;;;;;;;;;5005611;28;20733;-83
2021/01/03 06:35:48;;;;;;;113.43;50.45;;;;;;;;;;5018359;28;20434;-81
2021/01/03 06:38:33;;;;;;;90.40;45.50;;;;;;;;;;5017729;28;20430;-81
2021/01/03 06:41:05;;;;;;;91.82;45.40;;;;;;;;;;5006982;28;20806;-82
2021/01/03 06:43:31;;;;;;;91.85;45.10;;;;;;;;;;5015205;28;20410;-80
2021/01/03 06:46:16;;;;;;;83.07;44.28;;;;;;;;;;5018804;28;20922;-82
2021/01/03 06:49:01;;;;;;;85.05;43.58;;;;;;;;;;5002022;28;20550;-82
2021/01/03 06:52:01;;;;;;;90.22;45.65;;;;;;;;;;5016307;28;20400;-82
2021/01/03 06:54:36;;;;;;;84.40;45.20;;;;;;;;;;4963863;28;20782;-82
2021/01/03 06:57:33;;;;;;;87.90;45.80;;;;;;;;;;5011860;28;20453;-82
2021/01/03 07:00:02;;;;;;;91.28;46.25;;;;;;;;;;5007193;28;20398;-82
2021/01/03 07:02:28;;;;;;;93.77;46.60;;;;;;;;;;5008292;28;20432;-81
2021/01/03 07:04:55;;;;;;;91.70;47.00;;;;;;;;;;5013903;28;20918;-82
2021/01/03 07:07:23;;;;;;;90.45;45.58;;;;;;;;;;4984336;28;20406;-81
2021/01/03 07:09:55;;;;;;;85.82;44.72;;;;;;;;;;4989573;28;20820;-82
2021/01/03 07:12:32;;;;;;;82.97;44.60;;;;;;;;;;4993706;28;20464;-82
2021/01/03 07:14:58;;;;;;;79.07;42.65;;;;;;;;;;4985254;28;20420;-82
2021/01/03 07:17:26;;;;;;;81.05;43.78;;;;;;;;;;5001181;28;20399;-81
2021/01/03 07:20:03;;;;;;;87.47;46.40;;;;;;;;;;4996542;28;20408;-82
2021/01/03 07:22:34;;;;;;;85.32;47.10;;;;;;;;;;5008935;28;20402;-82
2021/01/03 07:25:00;;;;;;;89.30;47.38;;;;;;;;;;5009371;28;20426;-82
2021/01/03 07:27:39;;;;;;;83.25;44.75;;;;;;;;;;5010007;28;20404;-82
2021/01/03 07:30:05;;;;;;;82.37;46.50;;;;;;;;;;5008570;28;20400;-82
2021/01/03 07:32:37;;;;;;;85.97;46.97;;;;;;;;;;5003118;28;20433;-82
2021/01/03 07:35:06;;;;;;;90.47;48.50;;;;;;;;;;5008918;28;20940;-81
2021/01/03 07:37:33;;;;;;;85.93;46.13;;;;;;;;;;5008291;28;20502;-82
2021/01/03 07:40:12;;;;;;;82.35;45.45;;;;;;;;;;4999783;28;20396;-83
2021/01/03 07:42:58;;;;;;;81.45;45.70;;;;;;;;;;5009446;28;20418;-81
2021/01/03 07:45:33;;;;;;;82.43;45.47;;;;;;;;;;5006106;28;20524;-81
2021/01/03 07:47:59;;;;;;;88.00;46.65;;;;;;;;;;5004126;28;20440;-82
2021/01/03 07:50:26;;;;;;;85.40;47.10;;;;;;;;;;5000451;28;20403;-83
2021/01/03 07:52:53;;;;;;;82.60;46.53;;;;;;;;;;5007620;28;20860;-82
2021/01/03 07:55:22;;;;;;;77.72;44.38;;;;;;;;;;5003170;28;20407;-82
2021/01/03 07:57:52;;;;;;;82.72;46.55;;;;;;;;;;5005919;28;20407;-82
2021/01/03 08:00:18;;;;;;;83.95;45.20;;;;;;;;;;5019008;28;20399;-83
2021/01/03 08:02:44;;;;;;;84.63;45.33;;;;;;;;;;5007956;28;20716;-82
2021/01/03 08:05:10;;;;;;;82.40;44.70;;;;;;;;;;5007093;28;20425;-83
2021/01/03 08:07:36;;;;;;;77.07;43.57;;;;;;;;;;5001983;28;20486;-83
2021/01/03 08:10:07;;;;;;;80.88;43.80;;;;;;;;;;5003118;28;20490;-82
2021/01/03 08:12:38;;;;;;;75.22;42.55;;;;;;;;;;5007757;28;20411;-83
2021/01/03 08:15:09;;;;;;;72.88;40.90;;;;;;;;;;5005914;28;20426;-83
2021/01/03 08:17:41;;;;;;;69.00;41.08;;;;;;;;;;5006170;28;20426;-84
2021/01/03 08:20:09;;;;;;;68.20;39.22;;;;;;;;;;5005042;28;20423;-82
2021/01/03 08:22:35;;;;;;;70.65;41.20;;;;;;;;;;5009035;28;20399;-82
2021/01/03 08:25:02;;;;;;;69.13;39.97;;;;;;;;;;5006847;28;20415;-82
2021/01/03 08:27:40;;;;;;;68.75;40.03;;;;;;;;;;5001715;28;20413;-82
2021/01/03 08:30:11;;;;;;;66.93;40.05;;;;;;;;;;5006640;28;20399;-84
2021/01/03 08:32:38;;;;;;;67.90;38.53;;;;;;;;;;5007884;28;20494;-81
2021/01/03 08:35:08;;;;;;;64.82;38.85;;;;;;;;;;5005815;28;20394;-82
2021/01/03 08:37:41;;;;;;;64.97;37.40;;;;;;;;;;5011284;28;20412;-82
2021/01/03 08:40:12;;;;;;;59.33;35.67;;;;;;;;;;5010819;28;20706;-83
2021/01/03 08:42:39;;;;;;;62.58;37.15;;;;;;;;;;5011290;28;20434;-84
2021/01/03 08:45:08;;;;;;;60.83;34.55;;;;;;;;;;5009583;28;20528;-83
2021/01/03 08:47:39;;;;;;;63.43;37.23;;;;;;;;;;5009499;28;20743;-83
2021/01/03 08:50:09;;;;;;;59.80;35.38;;;;;;;;;;5029022;28;20444;-83
2021/01/03 08:52:36;;;;;;;60.05;33.95;;;;;;;;;;5006798;28;20859;-83
2021/01/03 08:55:13;;;;;;;55.58;33.75;;;;;;;;;;5031571;28;20485;-82
2021/01/03 08:57:40;;;;;;;55.97;33.95;;;;;;;;;;5006854;28;20437;-82
2021/01/03 09:00:09;;;;;;;53.97;32.90;;;;;;;;;;5010756;28;20860;-82
2021/01/03 09:02:35;;;;;;;50.38;29.67;;;;;;;;;;5011089;28;20406;-82
2021/01/03 09:05:02;;;;;;;49.10;28.92;;;;;;;;;;5010340;28;20438;-82
2021/01/03 09:07:31;;;;;;;49.40;29.98;;;;;;;;;;5010202;28;20722;-82
2021/01/03 09:10:01;;;;;;;49.30;30.23;;;;;;;;;;5010693;28;20408;-82
2021/01/03 09:12:40;;;;;;;49.38;30.13;;;;;;;;;;5007383;28;20425;-83
2021/01/03 09:15:14;;;;;;;46.92;29.58;;;;;;;;;;5010734;28;20407;-83
2021/01/03 09:17:41;;;;;;;46.13;28.63;;;;;;;;;;5010060;28;20403;-82
2021/01/03 09:20:11;;;;;;;49.70;29.25;;;;;;;;;;4993934;28;20916;-82
2021/01/03 09:22:39;;;;;;;49.10;28.52;;;;;;;;;;5006901;28;20495;-82
2021/01/03 09:25:05;;;;;;;43.45;27.50;;;;;;;;;;5008117;28;20547;-83
2021/01/03 09:27:32;;;;;;;43.35;27.33;;;;;;;;;;4990742;28;20409;-82
2021/01/03 09:30:16;;;;;;;42.30;26.08;;;;;;;;;;4992526;28;20389;-82
2021/01/03 09:32:42;;;;;;;43.13;26.70;;;;;;;;;;4998673;28;20444;-82
2021/01/03 09:35:20;;;;;;;41.30;26.60;;;;;;;;;;4988252;28;20396;-81
2021/01/03 09:38:01;;;;;;;40.88;24.92;;;;;;;;;;4998892;28;20435;-82
2021/01/03 09:40:48;;;;;;;37.90;24.60;;;;;;;;;;5007950;28;20866;-81
2021/01/03 09:43:27;;;;;;;37.42;24.13;;;;;;;;;;5022893;28;20510;-83
2021/01/03 09:46:05;;;;;;;38.90;24.20;;;;;;;;;;5024213;28;20897;-81
2021/01/03 09:48:33;;;;;;;38.58;24.80;;;;;;;;;;5021767;28;20428;-82
2021/01/03 09:51:08;;;;;;;40.70;25.25;;;;;;;;;;5023238;28;20476;-82
2021/01/03 09:53:38;;;;;;;38.23;24.57;;;;;;;;;;5003183;28;21043;-83
2021/01/03 09:56:07;;;;;;;39.22;24.88;;;;;;;;;;5006768;28;20824;-82
2021/01/03 09:58:34;;;;;;;41.28;24.70;;;;;;;;;;5007561;28;21107;-82
2021/01/03 10:01:00;;;;;;;39.22;24.65;;;;;;;;;;5023476;28;20751;-82
2021/01/03 10:03:52;;;;;;;38.63;23.85;;;;;;;;;;5023873;28;20393;-82
2021/01/03 10:06:20;;;;;;;39.05;24.13;;;;;;;;;;5002825;28;21245;-83
2021/01/03 10:08:47;;;;;;;41.80;25.13;;;;;;;;;;5018786;28;20433;-82
2021/01/03 10:11:28;;;;;;;41.03;25.75;;;;;;;;;;5020996;28;20406;-82
2021/01/03 10:13:55;;;;;;;41.08;26.30;;;;;;;;;;5021085;28;20447;-82
2021/01/03 10:16:22;;;;;;;41.17;25.52;;;;;;;;;;5018942;28;20455;-83
2021/01/03 10:18:48;;;;;;;42.10;25.52;;;;;;;;;;5019354;28;20912;-82
2021/01/03 10:21:28;;;;;;;37.95;24.25;;;;;;;;;;5025273;28;20415;-80
2021/01/03 10:23:55;;;;;;;41.78;25.17;;;;;;;;;;5026063;28;20399;-81
2021/01/03 10:26:23;;;;;;;38.55;25.13;;;;;;;;;;5025811;28;20480;-81
2021/01/03 10:28:49;;;;;;;38.40;23.77;;;;;;;;;;5025715;28;20478;-81
2021/01/03 10:31:15;;;;;;;36.42;24.05;;;;;;;;;;5026367;28;20491;-82
2021/01/03 10:33:41;;;;;;;39.00;24.50;;;;;;;;;;5026293;28;20407;-82
2021/01/03 10:36:07;;;;;;;38.72;24.65;;;;;;;;;;5023535;28;20401;-82
2021/01/03 10:38:34;;;;;;;42.20;24.77;;;;;;;;;;5023318;28;20406;-81
2021/01/03 10:41:00;;;;;;;37.97;23.80;;;;;;;;;;5026531;28;20478;-82
2021/01/03 10:43:26;;;;;;;36.90;22.95;;;;;;;;;;5022072;28;20514;-82
2021/01/03 10:45:52;;;;;;;37.88;23.73;;;;;;;;;;5025870;28;20526;-82
2021/01/03 10:48:18;;;;;;;39.40;24.50;;;;;;;;;;5025608;28;20407;-81
2021/01/03 10:50:44;;;;;;;36.25;23.20;;;;;;;;;;5026836;28;20390;-82
2021/01/03 10:53:10;;;;;;;37.45;22.88;;;;;;;;;;5021813;28;20413;-82
2021/01/03 10:55:36;;;;;;;37.83;23.80;;;;;;;;;;5026335;28;20431;-81
2021/01/03 10:58:02;;;;;;;41.42;22.65;;;;;;;;;;5024038;28;20462;-82
2021/01/03 11:00:28;;;;;;;38.92;23.13;;;;;;;;;;5026430;28;20399;-82
2021/01/03 11:02:53;;;;;;;34.35;22.23;;;;;;;;;;5025913;28;20410;-83
2021/01/03 11:05:20;;;;;;;37.10;22.50;;;;;;;;;;5041916;28;20458;-82
2021/01/03 11:07:46;;;;;;;35.38;22.05;;;;;;;;;;5020532;28;20726;-82
2021/01/03 11:10:12;;;;;;;37.55;22.65;;;;;;;;;;5025342;28;20426;-82
2021/01/03 11:12:39;;;;;;;33.97;22.15;;;;;;;;;;5026139;28;20387;-83
2021/01/03 11:15:06;;;;;;;37.58;22.33;;;;;;;;;;5042016;28;20933;-82
2021/01/03 11:17:32;;;;;;;40.83;23.95;;;;;;;;;;5024904;28;20401;-82
2021/01/03 11:19:58;;;;;;;34.38;21.88;;;;;;;;;;5023432;28;20429;-82
2021/01/03 11:22:24;;;;;;;36.80;21.58;;;;;;;;;;5023404;28;20590;-82
2021/01/03 11:24:53;;;;;;;33.55;20.48;;;;;;;;;;5024158;28;20407;-85
2021/01/03 11:27:20;;;;;;;37.55;21.67;;;;;;;;;;5024780;28;20854;-82
2021/01/03 11:29:46;;;;;;;34.60;20.67;;;;;;;;;;5025293;28;20438;-82
2021/01/03 11:32:14;;;;;;;33.67;20.17;;;;;;;;;;5023603;28;20403;-83
2021/01/03 11:34:41;;;;;;;30.95;19.42;;;;;;;;;;5040343;28;20406;-84
2021/01/03 11:37:08;;;;;;;31.65;20.65;;;;;;;;;;5022020;28;20409;-83
2021/01/03 11:39:35;;;;;;;32.78;19.60;;;;;;;;;;5026053;28;20526;-83
2021/01/03 11:42:03;;;;;;;29.57;18.73;;;;;;;;;;5025112;28;20387;-85
2021/01/03 11:44:29;;;;;;;30.92;18.67;;;;;;;;;;5025514;28;20414;-83
2021/01/03 11:46:59;;;;;;;28.30;17.40;;;;;;;;;;5025115;28;20395;-83
2021/01/03 11:49:25;;;;;;;31.75;20.27;;;;;;;;;;5025483;28;20457;-83
2021/01/03 11:51:51;;;;;;;29.63;18.60;;;;;;;;;;5026927;28;20395;-82
2021/01/03 11:54:18;;;;;;;29.48;18.65;;;;;;;;;;5026337;28;20520;-82
2021/01/03 11:56:44;;;;;;;29.63;19.35;;;;;;;;;;5021794;28;20395;-82
2021/01/03 11:59:10;;;;;;;34.50;20.08;;;;;;;;;;5024602;28;20453;-79
2021/01/03 12:01:36;;;;;;;31.00;18.67;;;;;;;;;;5025234;28;20387;-80
2021/01/03 12:04:02;;;;;;;31.25;19.70;;;;;;;;;;5025355;28;20391;-79
2021/01/03 12:06:28;;;;;;;30.83;19.67;;;;;;;;;;5025593;28;20423;-80
2021/01/03 12:08:54;;;;;;;33.55;20.15;;;;;;;;;;5025628;28;20475;-80
2021/01/03 12:11:22;;;;;;;33.70;20.67;;;;;;;;;;5023992;28;20411;-81
2021/01/03 12:13:48;;;;;;;31.88;20.42;;;;;;;;;;5025807;28;20395;-80
2021/01/03 12:16:22;;;;;;;36.45;22.38;;;;;;;;;;5022683;28;20499;-80
2021/01/03 12:18:48;;;;;;;31.48;20.02;;;;;;;;;;5015703;28;20411;-80
2021/01/03 12:21:29;;;;;;;34.60;21.73;;;;;;;;;;5025857;28;20869;-80
2021/01/03 12:23:56;;;;;;;33.47;20.45;;;;;;;;;;5006506;28;20503;-80
2021/01/03 12:26:24;;;;;;;34.05;20.75;;;;;;;;;;5006061;28;20462;-81
2021/01/03 12:28:50;;;;;;;31.90;20.35;;;;;;;;;;5008290;28;21139;-80
2021/01/03 12:31:16;;;;;;;33.28;20.27;;;;;;;;;;5008066;28;20411;-81
2021/01/03 12:33:42;;;;;;;34.42;21.00;;;;;;;;;;5006817;28;20804;-80
2021/01/03 12:36:09;;;;;;;39.30;23.80;;;;;;;;;;5006804;28;20505;-80
2021/01/03 12:38:35;;;;;;;33.88;21.85;;;;;;;;;;5005141;28;20430;-80
2021/01/03 12:41:01;;;;;;;33.58;22.60;;;;;;;;;;5004519;28;20403;-80
2021/01/03 12:43:27;;;;;;;35.20;22.48;;;;;;;;;;5024568;28;20697;-80
2021/01/03 12:45:53;;;;;;;34.72;21.98;;;;;;;;;;5005302;28;20430;-80
2021/01/03 12:48:19;;;;;;;35.65;22.42;;;;;;;;;;5004443;28;20387;-81
2021/01/03 12:50:48;;;;;;;36.05;22.48;;;;;;;;;;5019152;28;20413;-85
2021/01/03 12:53:14;;;;;;;34.08;21.80;;;;;;;;;;5006223;28;20498;-80
2021/01/03 12:55:40;;;;;;;31.00;20.73;;;;;;;;;;5005377;28;20577;-81
2021/01/03 12:58:06;;;;;;;34.47;22.73;;;;;;;;;;5003720;28;20415;-81
2021/01/03 13:00:32;;;;;;;35.35;22.42;;;;;;;;;;5007630;28;20944;-81
2021/01/03 13:02:58;;;;;;;34.80;22.27;;;;;;;;;;5008989;28;20905;-81
2021/01/03 13:05:24;;;;;;;31.23;21.13;;;;;;;;;;5008590;28;20764;-81
2021/01/03 13:07:50;;;;;;;31.58;21.13;;;;;;;;;;5004490;28;20923;-80
2021/01/03 13:10:16;;;;;;;32.97;21.17;;;;;;;;;;5000066;28;21004;-81
2021/01/03 13:12:42;;;;;;;31.88;20.30;;;;;;;;;;5007875;28;20383;-83
2021/01/03 13:15:10;;;;;;;31.55;18.77;;;;;;;;;;5008706;28;20856;-80
2021/01/03 13:17:36;;;;;;;28.60;19.10;;;;;;;;;;5007105;28;20399;-81
2021/01/03 13:20:02;;;;;;;30.27;18.83;;;;;;;;;;5010766;28;20862;-81
2021/01/03 13:22:28;;;;;;;27.75;18.67;;;;;;;;;;5004263;28;21050;-80
2021/01/03 13:24:54;;;;;;;29.92;18.65;;;;;;;;;;5004648;28;20417;-83
2021/01/03 13:27:23;;;;;;;29.38;19.08;;;;;;;;;;5012611;28;20478;-82
2021/01/03 13:30:03;;;;;;;29.60;18.52;;;;;;;;;;5011129;28;20409;-81
2021/01/03 13:32:30;;;;;;;27.93;18.73;;;;;;;;;;5029489;28;20474;-81
2021/01/03 13:34:56;;;;;;;29.85;18.75;;;;;;;;;;5011080;28;20729;-81
2021/01/03 13:37:22;;;;;;;32.08;19.88;;;;;;;;;;5010990;28;20426;-82
2021/01/03 13:39:48;;;;;;;31.48;20.60;;;;;;;;;;5011011;28;20904;-83
2021/01/03 13:42:14;;;;;;;32.70;20.63;;;;;;;;;;5011794;28;20391;-82
2021/01/03 13:44:40;;;;;;;30.17;19.88;;;;;;;;;;5008972;28;20886;-81
2021/01/03 13:47:06;;;;;;;30.63;20.27;;;;;;;;;;5011603;28;20384;-81
2021/01/03 13:49:32;;;;;;;28.90;18.05;;;;;;;;;;5008339;28;20406;-81
2021/01/03 13:52:05;;;;;;;30.80;19.13;;;;;;;;;;5008117;28;20414;-83
2021/01/03 13:54:34;;;;;;;30.05;18.52;;;;;;;;;;5002808;28;20413;-82
2021/01/03 13:57:05;;;;;;;29.80;19.13;;;;;;;;;;5022910;28;20724;-85
2021/01/03 13:59:31;;;;;;;30.60;18.40;;;;;;;;;;5003375;28;20407;-83
2021/01/03 14:01:57;;;;;;;29.40;17.50;;;;;;;;;;5005823;28;20979;-82
2021/01/03 14:04:24;;;;;;;26.23;17.20;;;;;;;;;;5007560;28;20895;-82
2021/01/03 14:06:55;;;;;;;27.73;18.52;;;;;;;;;;5007481;28;20410;-81
2021/01/03 14:09:21;;;;;;;28.38;18.60;;;;;;;;;;5007970;28;20938;-82
2021/01/03 14:11:47;;;;;;;26.75;16.55;;;;;;;;;;5011156;28;20453;-82
2021/01/03 14:14:13;;;;;;;26.63;16.20;;;;;;;;;;5005543;28;20816;-82
2021/01/03 14:16:40;;;;;;;24.52;16.02;;;;;;;;;;5005731;28;20864;-82
2021/01/03 14:19:06;;;;;;;22.67;14.52;;;;;;;;;;5007348;28;20411;-83
2021/01/03 14:21:36;;;;;;;21.48;13.85;;;;;;;;;;5011014;28;20453;-82
2021/01/03 14:24:02;;;;;;;23.37;14.47;;;;;;;;;;5010151;28;20399;-84
2021/01/03 14:26:32;;;;;;;21.42;12.82;;;;;;;;;;5010456;28;20441;-83